Time;durP1;ratioP1;P1;durP2;ratioP2;P2;SDS_P1;SDS_P2;PMS_P1;PMS_P2;Temp;Humidity;BMP_temperature;BMP_pressure;BME280_temperature;BME280_humidity;BME280_pressure;Samples;Min_cycle;Max_cycle;Signal;HPM_P1;HPM_P2
2022/08/03 00:01:44;;;;;;;2.30;1.92;;;;;;;;;;5006968;28;20483;-70
2022/08/03 00:04:10;;;;;;;6.97;2.13;;;;;;;;;;5016384;28;20034;-70
2022/08/03 00:06:36;;;;;;;2.70;2.00;;;;;;;;;;5019896;28;20048;-70
2022/08/03 00:09:02;;;;;;;3.53;2.00;;;;;;;;;;5026291;28;20036;-70
2022/08/03 00:11:27;;;;;;;1.95;1.63;;;;;;;;;;5008001;28;20030;-70
2022/08/03 00:13:53;;;;;;;2.90;1.90;;;;;;;;;;5008528;28;20510;-70
2022/08/03 00:16:18;;;;;;;3.60;1.80;;;;;;;;;;5009354;28;20511;-70
2022/08/03 00:18:44;;;;;;;1.95;1.65;;;;;;;;;;5021046;28;20040;-70
2022/08/03 00:21:09;;;;;;;2.45;2.05;;;;;;;;;;5010845;28;20607;-70
2022/08/03 00:23:34;;;;;;;5.75;1.75;;;;;;;;;;5008392;28;20061;-70
2022/08/03 00:26:00;;;;;;;3.92;1.95;;;;;;;;;;5008033;28;20057;-70
2022/08/03 00:28:26;;;;;;;2.15;1.88;;;;;;;;;;5008739;28;20070;-70
2022/08/03 00:30:51;;;;;;;3.70;1.90;;;;;;;;;;5013896;28;20034;-70
2022/08/03 00:33:17;;;;;;;2.88;2.00;;;;;;;;;;5017763;28;20034;-70
2022/08/03 00:35:42;;;;;;;2.10;1.75;;;;;;;;;;5027804;28;20025;-70
2022/08/03 00:38:08;;;;;;;2.53;1.98;;;;;;;;;;5023180;28;20033;-70
2022/08/03 00:40:33;;;;;;;2.30;2.10;;;;;;;;;;5007772;28;20049;-70
2022/08/03 00:43:04;;;;;;;4.35;1.90;;;;;;;;;;5008156;28;20069;-70
2022/08/03 00:45:32;;;;;;;3.28;1.90;;;;;;;;;;5010664;28;20104;-70
2022/08/03 00:47:58;;;;;;;3.55;2.17;;;;;;;;;;5023281;28;20025;-71
2022/08/03 00:50:25;;;;;;;2.95;1.75;;;;;;;;;;5011960;28;20178;-70
2022/08/03 00:52:56;;;;;;;3.90;2.35;;;;;;;;;;5011728;28;20115;-70
2022/08/03 00:55:22;;;;;;;3.78;2.10;;;;;;;;;;5011568;28;20030;-70
2022/08/03 00:57:48;;;;;;;4.88;2.30;;;;;;;;;;5010847;28;20025;-70
2022/08/03 01:00:17;;;;;;;3.08;1.92;;;;;;;;;;5018136;28;20031;-70
2022/08/03 01:02:43;;;;;;;3.10;2.00;;;;;;;;;;5027419;28;20669;-70
2022/08/03 01:05:09;;;;;;;3.42;2.10;;;;;;;;;;5013563;28;20108;-70
2022/08/03 01:08:04;;;;;;;2.55;1.90;;;;;;;;;;5011768;28;20467;-70
2022/08/03 01:10:38;;;;;;;3.10;2.20;;;;;;;;;;5010969;28;20393;-70
2022/08/03 01:13:28;;;;;;;3.63;2.00;;;;;;;;;;5017419;28;20121;-70
2022/08/03 01:16:01;;;;;;;3.22;2.00;;;;;;;;;;5007445;28;20046;-70
2022/08/03 01:18:43;;;;;;;4.03;2.20;;;;;;;;;;5011702;28;20597;-70
2022/08/03 01:21:15;;;;;;;3.63;2.33;;;;;;;;;;5010830;28;20030;-70
2022/08/03 01:24:01;;;;;;;2.03;1.83;;;;;;;;;;5011547;28;20394;-70
2022/08/03 01:27:03;;;;;;;2.50;2.10;;;;;;;;;;5020162;28;20467;-70
2022/08/03 01:30:01;;;;;;;2.92;2.00;;;;;;;;;;5002267;28;20038;-70
2022/08/03 01:32:47;;;;;;;3.67;1.92;;;;;;;;;;5010136;28;20034;-70
2022/08/03 01:35:16;;;;;;;2.67;1.90;;;;;;;;;;5010887;28;20034;-70
2022/08/03 01:37:50;;;;;;;2.70;1.95;;;;;;;;;;5010916;28;20051;-70
2022/08/03 01:40:17;;;;;;;2.88;1.98;;;;;;;;;;5017872;28;20029;-70
2022/08/03 01:42:43;;;;;;;3.88;2.20;;;;;;;;;;5023867;28;20025;-70
2022/08/03 01:45:12;;;;;;;3.00;2.20;;;;;;;;;;5030410;28;20025;-70
2022/08/03 01:47:39;;;;;;;3.40;2.25;;;;;;;;;;5030465;28;20037;-70
2022/08/03 01:50:07;;;;;;;5.45;2.00;;;;;;;;;;5019951;28;20029;-71
2022/08/03 01:52:32;;;;;;;2.22;2.03;;;;;;;;;;5014835;28;20033;-70
2022/08/03 01:55:00;;;;;;;1.90;1.80;;;;;;;;;;5030264;28;20394;-70
2022/08/03 01:57:28;;;;;;;2.42;2.22;;;;;;;;;;5029212;28;20197;-70
2022/08/03 01:59:55;;;;;;;2.38;2.10;;;;;;;;;;5001776;28;20030;-70
2022/08/03 02:02:21;;;;;;;3.58;2.28;;;;;;;;;;5010254;28;20030;-70
2022/08/03 02:04:49;;;;;;;3.47;2.15;;;;;;;;;;5020788;28;20021;-70
2022/08/03 02:07:15;;;;;;;4.95;2.20;;;;;;;;;;5029188;28;20072;-70
2022/08/03 02:09:44;;;;;;;2.60;2.20;;;;;;;;;;5028842;28;20036;-70
2022/08/03 02:12:10;;;;;;;4.40;2.10;;;;;;;;;;5029007;28;20430;-71
2022/08/03 02:14:38;;;;;;;2.72;2.03;;;;;;;;;;5028816;28;20030;-70
2022/08/03 02:17:05;;;;;;;3.85;2.55;;;;;;;;;;5018087;28;20544;-70
2022/08/03 02:19:31;;;;;;;2.30;1.83;;;;;;;;;;5016813;28;20040;-70
2022/08/03 02:21:57;;;;;;;2.83;2.10;;;;;;;;;;5008998;28;20108;-71
2022/08/03 02:24:23;;;;;;;2.92;2.33;;;;;;;;;;5009353;28;20053;-70
2022/08/03 02:26:52;;;;;;;4.75;2.15;;;;;;;;;;5002110;28;20124;-70
2022/08/03 02:29:22;;;;;;;2.97;2.08;;;;;;;;;;5007920;28;20065;-70
2022/08/03 02:31:49;;;;;;;2.28;2.08;;;;;;;;;;5019944;28;20451;-71
2022/08/03 02:34:15;;;;;;;2.97;2.30;;;;;;;;;;5028630;28;20048;-70
2022/08/03 02:36:45;;;;;;;2.45;2.22;;;;;;;;;;5027524;28;20036;-70
2022/08/03 02:39:14;;;;;;;3.70;2.25;;;;;;;;;;5005702;28;20064;-70
2022/08/03 02:41:47;;;;;;;3.13;2.00;;;;;;;;;;5008378;28;20120;-70
2022/08/03 02:44:16;;;;;;;4.03;2.40;;;;;;;;;;5008703;28;20036;-70
2022/08/03 02:46:45;;;;;;;2.20;2.00;;;;;;;;;;5012606;28;20447;-70
2022/08/03 02:49:13;;;;;;;4.65;3.25;;;;;;;;;;5011308;28;20121;-70
2022/08/03 02:51:40;;;;;;;3.55;2.10;;;;;;;;;;5008441;28;20037;-70
2022/08/03 02:54:08;;;;;;;2.45;2.22;;;;;;;;;;5008027;28;20038;-70
2022/08/03 02:56:35;;;;;;;2.22;2.03;;;;;;;;;;5008567;28;20030;-70
2022/08/03 02:59:00;;;;;;;2.88;2.22;;;;;;;;;;5007971;28;20040;-70
2022/08/03 03:01:27;;;;;;;2.72;2.28;;;;;;;;;;4976612;28;1035331;-70
2022/08/03 03:03:54;;;;;;;2.50;2.30;;;;;;;;;;5028648;28;20033;-70
2022/08/03 03:06:20;;;;;;;3.17;2.45;;;;;;;;;;5029161;28;20029;-70
2022/08/03 03:08:46;;;;;;;2.90;2.20;;;;;;;;;;5028467;28;20033;-70
2022/08/03 03:11:13;;;;;;;3.88;2.22;;;;;;;;;;5028379;28;20397;-70
2022/08/03 03:13:41;;;;;;;3.22;2.10;;;;;;;;;;5028762;28;20040;-70
2022/08/03 03:16:07;;;;;;;3.67;2.13;;;;;;;;;;5018598;28;20096;-70
2022/08/03 03:18:34;;;;;;;2.72;2.22;;;;;;;;;;5020695;28;20035;-70
2022/08/03 03:21:01;;;;;;;2.92;2.22;;;;;;;;;;5026557;28;20507;-70
2022/08/03 03:23:28;;;;;;;3.20;2.25;;;;;;;;;;5009044;28;20055;-70
2022/08/03 03:25:55;;;;;;;2.83;2.42;;;;;;;;;;5008613;28;20053;-70
2022/08/03 03:28:22;;;;;;;3.53;2.20;;;;;;;;;;5008747;28;20029;-70
2022/08/03 03:30:48;;;;;;;2.70;2.35;;;;;;;;;;5008441;28;20075;-70
2022/08/03 03:33:13;;;;;;;2.92;2.10;;;;;;;;;;5015139;28;20239;-70
2022/08/03 03:35:41;;;;;;;2.65;2.35;;;;;;;;;;5021356;28;20033;-70
2022/08/03 03:38:07;;;;;;;4.28;2.45;;;;;;;;;;5028498;28;20029;-70
2022/08/03 03:40:34;;;;;;;3.00;2.00;;;;;;;;;;5028312;28;20060;-70
2022/08/03 03:42:59;;;;;;;3.25;2.17;;;;;;;;;;5028343;28;20036;-70
2022/08/03 03:45:26;;;;;;;3.58;2.40;;;;;;;;;;5025408;28;20025;-70
2022/08/03 03:47:51;;;;;;;3.25;2.25;;;;;;;;;;5028153;28;20443;-70
2022/08/03 03:50:17;;;;;;;2.60;2.40;;;;;;;;;;5006301;28;20041;-70
2022/08/03 03:52:42;;;;;;;3.90;2.40;;;;;;;;;;5008767;28;20053;-70
2022/08/03 03:55:08;;;;;;;3.97;2.60;;;;;;;;;;5008463;28;20050;-70
2022/08/03 03:57:34;;;;;;;3.00;2.45;;;;;;;;;;5008652;28;20553;-70
2022/08/03 03:59:59;;;;;;;3.53;2.40;;;;;;;;;;5008189;28;20599;-70
2022/08/03 04:02:24;;;;;;;3.30;2.40;;;;;;;;;;5010112;28;20041;-70
2022/08/03 04:11:01;;;;;;;2.83;2.60;;;;;;;;;;5002920;28;20124;-70
2022/08/03 04:13:32;;;;;;;2.67;2.47;;;;;;;;;;5008379;28;20091;-70
2022/08/03 04:15:58;;;;;;;3.42;2.40;;;;;;;;;;5008244;28;20127;-70
2022/08/03 04:18:26;;;;;;;2.75;2.30;;;;;;;;;;5011098;28;20088;-71
2022/08/03 04:20:53;;;;;;;2.40;2.20;;;;;;;;;;5022420;28;20034;-70
2022/08/03 04:23:22;;;;;;;5.85;2.50;;;;;;;;;;5012238;28;20034;-70
2022/08/03 04:25:50;;;;;;;3.80;2.83;;;;;;;;;;5012138;28;20053;-71
2022/08/03 04:28:17;;;;;;;3.40;2.58;;;;;;;;;;5015752;28;20064;-70
2022/08/03 04:30:47;;;;;;;2.55;2.35;;;;;;;;;;5011700;28;20116;-70
2022/08/03 04:33:15;;;;;;;6.28;2.47;;;;;;;;;;5012053;28;20133;-70
2022/08/03 04:35:42;;;;;;;3.78;2.15;;;;;;;;;;5028685;28;20029;-70
2022/08/03 04:38:08;;;;;;;3.33;2.83;;;;;;;;;;5031600;28;20029;-70
2022/08/03 04:40:36;;;;;;;4.70;2.70;;;;;;;;;;5031310;28;20052;-70
2022/08/03 04:43:03;;;;;;;3.63;2.55;;;;;;;;;;5031481;28;20398;-70
2022/08/03 04:45:30;;;;;;;4.35;2.95;;;;;;;;;;5030579;28;20498;-70
2022/08/03 04:47:56;;;;;;;3.25;2.45;;;;;;;;;;5016604;28;20030;-70
2022/08/03 04:50:22;;;;;;;6.13;2.50;;;;;;;;;;5017592;28;20110;-70
2022/08/03 04:52:48;;;;;;;4.85;2.80;;;;;;;;;;5025717;28;20057;-70
2022/08/03 04:55:29;;;;;;;4.63;3.08;;;;;;;;;;5027212;28;20029;-70
2022/08/03 04:57:55;;;;;;;5.03;3.00;;;;;;;;;;5011464;28;20423;-70
2022/08/03 05:00:21;;;;;;;4.18;3.00;;;;;;;;;;5033216;22;20353;-70
2022/08/03 05:02:47;;;;;;;6.90;2.70;;;;;;;;;;5010019;28;20439;-70
2022/08/03 05:05:12;;;;;;;5.53;3.10;;;;;;;;;;5010731;28;20108;-70
2022/08/03 05:07:38;;;;;;;7.15;2.72;;;;;;;;;;5022882;28;20049;-70
2022/08/03 05:10:07;;;;;;;6.20;2.70;;;;;;;;;;5021618;28;20437;-70
2022/08/03 05:12:33;;;;;;;6.28;2.88;;;;;;;;;;5000720;28;20537;-70
2022/08/03 05:14:59;;;;;;;7.25;3.15;;;;;;;;;;5016025;28;20109;-70
2022/08/03 05:17:25;;;;;;;6.97;3.05;;;;;;;;;;5030129;28;20025;-70
2022/08/03 05:19:50;;;;;;;4.88;3.00;;;;;;;;;;5030580;28;20025;-70
2022/08/03 05:22:16;;;;;;;6.40;3.10;;;;;;;;;;5018627;28;20064;-70
2022/08/03 05:24:41;;;;;;;7.43;3.20;;;;;;;;;;5023751;28;20064;-70
2022/08/03 05:27:06;;;;;;;3.80;2.88;;;;;;;;;;5005170;28;20022;-70
2022/08/03 05:29:31;;;;;;;4.22;2.83;;;;;;;;;;5019120;28;20037;-70
2022/08/03 05:31:57;;;;;;;7.70;3.35;;;;;;;;;;5009221;28;20037;-70
2022/08/03 05:34:22;;;;;;;9.25;3.40;;;;;;;;;;4999107;28;20466;-70
2022/08/03 05:36:47;;;;;;;3.97;2.92;;;;;;;;;;4998886;28;20029;-70
2022/08/03 05:39:13;;;;;;;4.93;3.17;;;;;;;;;;5009504;28;20319;-70
2022/08/03 05:41:39;;;;;;;6.85;3.10;;;;;;;;;;5005084;28;20071;-70
2022/08/03 05:44:04;;;;;;;6.50;2.95;;;;;;;;;;5003249;28;20055;-70
2022/08/03 05:46:30;;;;;;;6.68;3.20;;;;;;;;;;5010600;28;20018;-70
2022/08/03 05:48:55;;;;;;;6.13;3.10;;;;;;;;;;5010565;28;20025;-70
2022/08/03 05:51:20;;;;;;;4.05;3.30;;;;;;;;;;5000459;28;20030;-70
2022/08/03 05:53:46;;;;;;;4.22;2.92;;;;;;;;;;5012092;28;20182;-70
2022/08/03 05:56:11;;;;;;;3.78;2.92;;;;;;;;;;5021197;28;20026;-70
2022/08/03 05:58:36;;;;;;;5.38;3.30;;;;;;;;;;5005216;28;20101;-70
2022/08/03 06:01:02;;;;;;;3.92;3.20;;;;;;;;;;4998422;28;20038;-71
2022/08/03 06:03:27;;;;;;;5.40;3.28;;;;;;;;;;5002312;28;20356;-71
2022/08/03 06:05:55;;;;;;;5.80;3.42;;;;;;;;;;5007527;28;20515;-71
2022/08/03 06:08:20;;;;;;;8.43;3.50;;;;;;;;;;4988446;28;20036;-70
2022/08/03 06:10:46;;;;;;;6.70;2.97;;;;;;;;;;5003622;28;20283;-71
2022/08/03 06:13:11;;;;;;;4.18;3.00;;;;;;;;;;5009689;28;20030;-71
2022/08/03 06:15:36;;;;;;;4.32;3.03;;;;;;;;;;5000172;28;20121;-71
2022/08/03 06:18:02;;;;;;;3.95;3.00;;;;;;;;;;5004950;28;20496;-70
2022/08/03 06:20:27;;;;;;;4.15;2.90;;;;;;;;;;5010882;28;20060;-71
2022/08/03 06:22:53;;;;;;;5.65;2.92;;;;;;;;;;5021094;28;20083;-71
2022/08/03 06:25:19;;;;;;;5.68;3.00;;;;;;;;;;5029387;28;20083;-71
2022/08/03 06:27:44;;;;;;;6.32;3.13;;;;;;;;;;5029101;28;20147;-71
2022/08/03 06:30:11;;;;;;;3.63;2.38;;;;;;;;;;5009906;28;20088;-71
2022/08/03 06:32:40;;;;;;;3.70;2.45;;;;;;;;;;5019860;28;20109;-72
2022/08/03 06:35:07;;;;;;;7.03;2.38;;;;;;;;;;5014671;28;20120;-71
2022/08/03 06:37:44;;;;;;;4.28;2.40;;;;;;;;;;5016151;28;20037;-71
2022/08/03 06:40:11;;;;;;;5.53;2.28;;;;;;;;;;5005756;28;21390;-71
2022/08/03 06:42:36;;;;;;;4.88;2.50;;;;;;;;;;5005667;28;20424;-71
2022/08/03 06:45:02;;;;;;;4.77;2.60;;;;;;;;;;5009002;28;20080;-71
2022/08/03 06:47:28;;;;;;;4.38;2.88;;;;;;;;;;5009347;28;20329;-71
2022/08/03 06:49:53;;;;;;;10.63;3.72;;;;;;;;;;5008819;28;20084;-70
2022/08/03 06:52:18;;;;;;;8.37;3.10;;;;;;;;;;5009327;28;20117;-70
2022/08/03 06:54:43;;;;;;;7.97;3.10;;;;;;;;;;5013553;28;20743;-71
2022/08/03 06:57:10;;;;;;;6.10;3.30;;;;;;;;;;5017453;28;20272;-71
2022/08/03 06:59:36;;;;;;;7.15;3.28;;;;;;;;;;5004591;28;20268;-71
2022/08/03 07:02:01;;;;;;;5.35;3.30;;;;;;;;;;4993582;28;20092;-71
2022/08/03 07:04:26;;;;;;;6.60;2.63;;;;;;;;;;5003936;28;20038;-71
2022/08/03 07:06:51;;;;;;;4.40;3.00;;;;;;;;;;5003132;28;20026;-71
2022/08/03 07:09:17;;;;;;;5.75;2.67;;;;;;;;;;5005583;28;20756;-71
2022/08/03 07:11:42;;;;;;;6.38;2.80;;;;;;;;;;5005839;28;20550;-71
2022/08/03 07:14:07;;;;;;;8.57;2.97;;;;;;;;;;5005526;28;20491;-72
2022/08/03 07:16:33;;;;;;;5.67;2.53;;;;;;;;;;5006380;28;20263;-71
2022/08/03 07:18:58;;;;;;;5.88;3.08;;;;;;;;;;5005470;28;20338;-69
2022/08/03 07:21:23;;;;;;;5.75;2.78;;;;;;;;;;5005355;28;20109;-69
2022/08/03 07:23:48;;;;;;;8.38;3.22;;;;;;;;;;5003553;28;20439;-70
2022/08/03 07:26:14;;;;;;;7.18;2.90;;;;;;;;;;5002098;28;20065;-69
2022/08/03 07:28:39;;;;;;;7.35;3.17;;;;;;;;;;4998739;28;20018;-69
2022/08/03 07:31:04;;;;;;;12.77;3.35;;;;;;;;;;5005380;28;20096;-69
2022/08/03 07:33:30;;;;;;;10.50;2.90;;;;;;;;;;5004844;28;20388;-70
2022/08/03 07:35:55;;;;;;;9.48;3.10;;;;;;;;;;5005265;28;20255;-70
2022/08/03 07:38:20;;;;;;;7.20;3.35;;;;;;;;;;5003995;28;20025;-70
2022/08/03 07:40:45;;;;;;;13.10;2.80;;;;;;;;;;5005497;28;20038;-69
2022/08/03 07:43:11;;;;;;;9.45;2.90;;;;;;;;;;5004333;28;20808;-69
2022/08/03 07:45:36;;;;;;;10.52;2.47;;;;;;;;;;5003232;28;20121;-68
2022/08/03 07:48:01;;;;;;;4.80;2.42;;;;;;;;;;5005658;28;20360;-69
2022/08/03 07:50:27;;;;;;;9.45;2.63;;;;;;;;;;5004735;28;20026;-68
2022/08/03 07:52:54;;;;;;;7.53;2.85;;;;;;;;;;5005811;28;20022;-68
2022/08/03 07:55:22;;;;;;;6.15;2.67;;;;;;;;;;4996155;28;20022;-68
2022/08/03 07:58:03;;;;;;;7.10;2.45;;;;;;;;;;5004782;28;20507;-68
2022/08/03 08:00:28;;;;;;;6.50;2.20;;;;;;;;;;5001541;28;20367;-69
2022/08/03 08:02:53;;;;;;;6.38;2.28;;;;;;;;;;5003227;28;20108;-69
2022/08/03 08:05:19;;;;;;;4.88;2.25;;;;;;;;;;4999450;28;20014;-69
2022/08/03 08:07:44;;;;;;;8.57;2.25;;;;;;;;;;4993863;28;20451;-69
2022/08/03 08:10:10;;;;;;;5.47;2.10;;;;;;;;;;4994197;28;20484;-69
2022/08/03 08:12:36;;;;;;;4.60;2.28;;;;;;;;;;4985448;28;20292;-69
2022/08/03 08:15:02;;;;;;;6.60;1.85;;;;;;;;;;4985413;28;20061;-69
2022/08/03 08:17:27;;;;;;;4.70;2.05;;;;;;;;;;5002572;28;20065;-69
2022/08/03 08:19:53;;;;;;;4.82;2.10;;;;;;;;;;5004997;28;20084;-69
2022/08/03 08:22:18;;;;;;;3.75;1.80;;;;;;;;;;5003721;28;20045;-69
2022/08/03 08:24:43;;;;;;;2.70;1.90;;;;;;;;;;4987506;28;20116;-70
2022/08/03 08:27:10;;;;;;;6.17;1.80;;;;;;;;;;5002314;28;20033;-69
2022/08/03 08:29:37;;;;;;;4.65;1.90;;;;;;;;;;5004490;28;20289;-70
2022/08/03 08:32:02;;;;;;;7.05;2.28;;;;;;;;;;5003493;28;20060;-70
2022/08/03 08:34:27;;;;;;;4.18;1.75;;;;;;;;;;5004615;28;20454;-70
2022/08/03 08:36:53;;;;;;;5.33;2.00;;;;;;;;;;5004658;28;20108;-70
2022/08/03 08:39:18;;;;;;;3.33;1.90;;;;;;;;;;4999572;28;20811;-70
2022/08/03 08:41:43;;;;;;;7.22;2.10;;;;;;;;;;4986361;28;20025;-70
2022/08/03 08:44:09;;;;;;;2.40;1.60;;;;;;;;;;5005111;28;20034;-69
2022/08/03 08:46:37;;;;;;;6.33;1.80;;;;;;;;;;5022805;28;20113;-70
2022/08/03 08:49:02;;;;;;;6.28;2.13;;;;;;;;;;5021309;28;20030;-70
2022/08/03 08:51:36;;;;;;;7.03;1.48;;;;;;;;;;5004350;28;20022;-70
2022/08/03 08:54:03;;;;;;;5.15;1.65;;;;;;;;;;5004810;28;20052;-69
2022/08/03 08:56:31;;;;;;;2.22;1.35;;;;;;;;;;5004572;28;20048;-70
2022/08/03 08:59:00;;;;;;;2.38;1.30;;;;;;;;;;5004786;28;20030;-70
2022/08/03 09:01:26;;;;;;;3.63;1.30;;;;;;;;;;5004085;28;20112;-69
2022/08/03 09:03:53;;;;;;;3.55;1.60;;;;;;;;;;5002403;28;20030;-70
2022/08/03 09:06:19;;;;;;;5.97;1.40;;;;;;;;;;5004146;28;20052;-70
2022/08/03 09:08:44;;;;;;;1.80;1.25;;;;;;;;;;5007723;28;20113;-70
2022/08/03 09:11:10;;;;;;;3.05;1.23;;;;;;;;;;5007734;28;20121;-70
2022/08/03 09:13:35;;;;;;;1.80;1.30;;;;;;;;;;5008603;28;20105;-69
2022/08/03 09:16:27;;;;;;;3.00;1.20;;;;;;;;;;5007615;28;20033;-70
2022/08/03 09:18:53;;;;;;;3.30;1.27;;;;;;;;;;5003344;28;20543;-70
2022/08/03 09:21:30;;;;;;;1.38;0.90;;;;;;;;;;5007568;28;20032;-70
2022/08/03 09:23:57;;;;;;;6.90;1.33;;;;;;;;;;5022410;28;20105;-69
2022/08/03 09:26:25;;;;;;;1.63;1.25;;;;;;;;;;5010655;28;20108;-69
2022/08/03 09:28:59;;;;;;;1.10;1.00;;;;;;;;;;5004658;28;20373;-70
2022/08/03 09:31:38;;;;;;;3.08;1.27;;;;;;;;;;5005829;28;20033;-69
2022/08/03 09:34:06;;;;;;;1.58;1.10;;;;;;;;;;5007451;28;20041;-68
2022/08/03 09:36:34;;;;;;;4.35;1.27;;;;;;;;;;5006778;28;20026;-70
2022/08/03 09:39:06;;;;;;;4.03;1.23;;;;;;;;;;5006069;28;20198;-69
2022/08/03 09:41:32;;;;;;;3.00;1.35;;;;;;;;;;4999709;28;20026;-68
2022/08/03 09:43:58;;;;;;;3.60;1.30;;;;;;;;;;5006648;28;20029;-69
2022/08/03 09:46:24;;;;;;;3.38;1.10;;;;;;;;;;5003719;28;20037;-70
2022/08/03 09:48:49;;;;;;;2.50;1.05;;;;;;;;;;5006381;28;20026;-69
2022/08/03 09:51:17;;;;;;;2.90;1.37;;;;;;;;;;5003513;28;20050;-68
2022/08/03 09:53:46;;;;;;;2.20;1.20;;;;;;;;;;5007268;28;20510;-69
2022/08/03 09:56:12;;;;;;;1.13;1.00;;;;;;;;;;5006788;28;20108;-68
2022/08/03 09:58:45;;;;;;;2.88;1.10;;;;;;;;;;5007289;28;20097;-68
2022/08/03 10:01:11;;;;;;;1.60;1.20;;;;;;;;;;4998916;28;20029;-68
2022/08/03 10:03:38;;;;;;;1.58;1.25;;;;;;;;;;5006731;28;20032;-68
2022/08/03 10:06:21;;;;;;;2.35;1.40;;;;;;;;;;4989332;28;20100;-68
2022/08/03 10:09:03;;;;;;;1.83;1.25;;;;;;;;;;5006740;28;20022;-67
2022/08/03 10:11:29;;;;;;;1.83;1.30;;;;;;;;;;5007025;28;20034;-68
2022/08/03 10:13:55;;;;;;;2.97;1.30;;;;;;;;;;5005286;28;20069;-68
2022/08/03 10:16:20;;;;;;;3.17;1.20;;;;;;;;;;5006350;28;20061;-69
2022/08/03 10:18:45;;;;;;;1.50;1.20;;;;;;;;;;5006337;28;20157;-69
2022/08/03 10:21:15;;;;;;;4.57;1.53;;;;;;;;;;5006597;28;20022;-70
2022/08/03 10:23:41;;;;;;;1.20;0.98;;;;;;;;;;5004815;28;20092;-68
2022/08/03 10:26:07;;;;;;;3.85;1.10;;;;;;;;;;5004731;28;20065;-68
2022/08/03 10:28:39;;;;;;;2.97;1.10;;;;;;;;;;5006149;28;20104;-68
2022/08/03 10:31:06;;;;;;;1.20;1.08;;;;;;;;;;5001834;28;20065;-68
2022/08/03 10:33:40;;;;;;;1.25;0.73;;;;;;;;;;5005850;28;20037;-68
2022/08/03 10:36:06;;;;;;;1.13;0.90;;;;;;;;;;5006845;28;20040;-68
2022/08/03 10:38:37;;;;;;;2.45;1.63;;;;;;;;;;4998414;28;20026;-68
2022/08/03 10:41:05;;;;;;;2.03;1.17;;;;;;;;;;5006414;28;20480;-67
2022/08/03 10:43:40;;;;;;;2.08;1.20;;;;;;;;;;5006329;28;20526;-67
2022/08/03 10:46:07;;;;;;;1.75;1.05;;;;;;;;;;5006644;28;20030;-67
2022/08/03 10:48:34;;;;;;;3.72;0.90;;;;;;;;;;5006124;28;20507;-68
2022/08/03 10:51:00;;;;;;;4.55;1.23;;;;;;;;;;5005737;28;20080;-68
2022/08/03 10:53:41;;;;;;;1.00;0.95;;;;;;;;;;5006336;28;20029;-67
2022/08/03 10:59:17;;;;;;;2.80;1.45;;;;;;;;;;5006457;28;20037;-67
2022/08/03 11:01:54;;;;;;;2.55;1.20;;;;;;;;;;5038808;23;20080;-72
2022/08/03 11:04:23;;;;;;;1.98;1.30;;;;;;;;;;5025307;28;20064;-71
2022/08/03 11:07:14;;;;;;;2.13;1.20;;;;;;;;;;5026019;28;20033;-71
2022/08/03 11:09:49;;;;;;;2.33;0.80;;;;;;;;;;5025353;28;20040;-72
2022/08/03 11:12:23;;;;;;;1.60;0.93;;;;;;;;;;5025245;28;20060;-71
2022/08/03 11:14:49;;;;;;;2.08;1.00;;;;;;;;;;5025053;28;20040;-71
2022/08/03 11:17:14;;;;;;;1.58;1.20;;;;;;;;;;5026144;28;20029;-71
2022/08/03 11:19:45;;;;;;;2.63;1.02;;;;;;;;;;5025100;28;20033;-72
2022/08/03 11:22:10;;;;;;;1.60;0.93;;;;;;;;;;5025179;28;20033;-73
2022/08/03 11:24:36;;;;;;;1.25;0.80;;;;;;;;;;5026025;28;20017;-71
2022/08/03 11:27:15;;;;;;;1.37;0.90;;;;;;;;;;5022943;28;20029;-71
2022/08/03 11:29:59;;;;;;;3.05;1.13;;;;;;;;;;5005215;28;20045;-71
2022/08/03 11:32:36;;;;;;;2.38;0.90;;;;;;;;;;5011728;28;20074;-71
2022/08/03 11:35:15;;;;;;;0.80;0.80;;;;;;;;;;5025002;28;20032;-71
2022/08/03 11:37:53;;;;;;;1.00;0.90;;;;;;;;;;5025663;28;20041;-70
2022/08/03 11:40:39;;;;;;;1.95;1.00;;;;;;;;;;5018175;28;20026;-73
2022/08/03 11:43:20;;;;;;;2.17;1.20;;;;;;;;;;5011110;28;20064;-71
2022/08/03 11:46:02;;;;;;;2.15;1.20;;;;;;;;;;5019382;28;20439;-71
2022/08/03 11:48:37;;;;;;;2.45;1.30;;;;;;;;;;5013704;28;20022;-71
2022/08/03 11:51:06;;;;;;;1.27;1.02;;;;;;;;;;5013833;28;20029;-71
2022/08/03 11:53:32;;;;;;;2.50;1.00;;;;;;;;;;5011741;28;20065;-71
2022/08/03 11:55:59;;;;;;;4.30;1.10;;;;;;;;;;5039905;28;20068;-71
2022/08/03 11:58:25;;;;;;;1.83;0.95;;;;;;;;;;5024275;28;20112;-69
2022/08/03 12:00:51;;;;;;;3.13;1.20;;;;;;;;;;5020999;28;20072;-70
2022/08/03 12:03:18;;;;;;;1.75;1.30;;;;;;;;;;5015577;28;20475;-73
2022/08/03 12:05:44;;;;;;;1.40;0.90;;;;;;;;;;5027677;28;20033;-72
2022/08/03 12:08:11;;;;;;;1.73;1.07;;;;;;;;;;5028318;28;20052;-71
2022/08/03 12:10:38;;;;;;;3.03;1.27;;;;;;;;;;5027809;28;20360;-71
2022/08/03 12:13:06;;;;;;;0.88;0.88;;;;;;;;;;5027823;28;20029;-71
2022/08/03 12:15:32;;;;;;;1.52;1.00;;;;;;;;;;5027221;28;20029;-70
2022/08/03 12:17:58;;;;;;;1.05;0.70;;;;;;;;;;5027802;28;20067;-71
2022/08/03 12:20:27;;;;;;;1.75;1.30;;;;;;;;;;5027482;28;20471;-70
2022/08/03 12:22:52;;;;;;;3.72;1.35;;;;;;;;;;5027713;28;20108;-72
2022/08/03 12:25:22;;;;;;;4.90;1.40;;;;;;;;;;5027742;28;20511;-71
2022/08/03 12:27:47;;;;;;;3.30;1.52;;;;;;;;;;5027744;28;20172;-70
2022/08/03 12:30:13;;;;;;;1.67;1.25;;;;;;;;;;5027374;28;20109;-70
2022/08/03 12:32:38;;;;;;;1.52;1.35;;;;;;;;;;5009709;28;20032;-71
2022/08/03 12:35:04;;;;;;;2.13;1.00;;;;;;;;;;5027760;28;20072;-72
2022/08/03 12:37:30;;;;;;;1.13;1.00;;;;;;;;;;5027660;28;20031;-71
2022/08/03 12:40:00;;;;;;;3.22;1.30;;;;;;;;;;5027434;28;20025;-70
2022/08/03 12:42:36;;;;;;;2.55;1.60;;;;;;;;;;5029892;28;20033;-71
2022/08/03 12:45:22;;;;;;;1.33;1.08;;;;;;;;;;5031411;28;20029;-70
2022/08/03 12:47:59;;;;;;;2.40;1.20;;;;;;;;;;5031739;28;20083;-71
2022/08/03 12:50:31;;;;;;;1.60;1.20;;;;;;;;;;5030884;28;20505;-71
2022/08/03 12:52:58;;;;;;;3.58;1.08;;;;;;;;;;5031541;28;20113;-71
2022/08/03 12:55:32;;;;;;;2.08;1.40;;;;;;;;;;5031702;28;20029;-71
2022/08/03 12:58:04;;;;;;;3.90;1.30;;;;;;;;;;5031844;28;20038;-71
2022/08/03 13:00:30;;;;;;;3.28;1.58;;;;;;;;;;5030849;28;20086;-71
2022/08/03 13:03:06;;;;;;;2.10;1.20;;;;;;;;;;5030994;28;20479;-71
2022/08/03 13:05:41;;;;;;;1.85;1.33;;;;;;;;;;5031193;28;20041;-69
2022/08/03 13:08:17;;;;;;;1.55;1.27;;;;;;;;;;5031423;28;20535;-71
2022/08/03 13:10:42;;;;;;;1.23;1.13;;;;;;;;;;5030815;28;20029;-73
2022/08/03 13:13:08;;;;;;;2.07;1.23;;;;;;;;;;5030992;28;20027;-70
2022/08/03 13:15:33;;;;;;;1.70;1.10;;;;;;;;;;5030767;28;20607;-68
2022/08/03 13:17:58;;;;;;;3.80;1.33;;;;;;;;;;5031064;28;20017;-69
2022/08/03 13:20:24;;;;;;;2.67;1.20;;;;;;;;;;5030807;28;20258;-69
2022/08/03 13:22:49;;;;;;;2.15;1.08;;;;;;;;;;5031200;28;20103;-70
2022/08/03 13:25:15;;;;;;;2.58;1.10;;;;;;;;;;5030698;28;20030;-69
2022/08/03 13:27:40;;;;;;;2.35;1.33;;;;;;;;;;5030732;28;20360;-70
2022/08/03 13:30:07;;;;;;;2.47;1.30;;;;;;;;;;5030239;28;20035;-69
2022/08/03 13:32:33;;;;;;;3.55;1.42;;;;;;;;;;5030958;28;20108;-69
2022/08/03 13:34:58;;;;;;;2.28;1.10;;;;;;;;;;5030674;28;20076;-69
2022/08/03 13:37:24;;;;;;;2.42;0.98;;;;;;;;;;5030632;28;20037;-71
2022/08/03 13:39:50;;;;;;;3.78;1.10;;;;;;;;;;5030436;28;20026;-70
2022/08/03 13:42:15;;;;;;;1.55;1.20;;;;;;;;;;5030497;28;20021;-69
2022/08/03 13:44:40;;;;;;;2.72;1.17;;;;;;;;;;5030326;28;20048;-69
2022/08/03 13:47:06;;;;;;;2.70;1.07;;;;;;;;;;5030584;28;20181;-69
2022/08/03 13:49:31;;;;;;;2.10;0.98;;;;;;;;;;5030278;28;20285;-69
2022/08/03 13:51:56;;;;;;;1.80;1.10;;;;;;;;;;5030411;28;20437;-70
2022/08/03 13:54:22;;;;;;;1.85;1.15;;;;;;;;;;5030250;28;20269;-70
2022/08/03 13:56:51;;;;;;;1.98;1.17;;;;;;;;;;5030139;28;20029;-69
2022/08/03 13:59:20;;;;;;;2.63;1.02;;;;;;;;;;5030641;28;20418;-69
2022/08/03 14:01:46;;;;;;;3.78;1.20;;;;;;;;;;5029719;28;20041;-69
2022/08/03 14:04:12;;;;;;;1.60;1.13;;;;;;;;;;5030284;28;20373;-68
2022/08/03 14:06:37;;;;;;;2.17;1.10;;;;;;;;;;5030216;28;20495;-70
2022/08/03 14:09:03;;;;;;;2.50;1.30;;;;;;;;;;5029991;28;20064;-70
2022/08/03 14:11:28;;;;;;;3.38;1.20;;;;;;;;;;5030426;28;20294;-69
2022/08/03 14:13:54;;;;;;;1.58;1.10;;;;;;;;;;5029969;28;20033;-71
2022/08/03 14:16:19;;;;;;;2.05;1.20;;;;;;;;;;5029940;28;20475;-70
2022/08/03 14:18:44;;;;;;;3.78;1.05;;;;;;;;;;5029762;28;20544;-70
2022/08/03 14:21:11;;;;;;;3.03;1.00;;;;;;;;;;5029507;28;20029;-69
2022/08/03 14:23:36;;;;;;;1.63;1.40;;;;;;;;;;5029832;28;20021;-71
2022/08/03 14:26:02;;;;;;;1.00;0.80;;;;;;;;;;5029682;28;20022;-69
2022/08/03 14:28:27;;;;;;;2.15;0.88;;;;;;;;;;5029612;28;20071;-69
2022/08/03 14:30:54;;;;;;;1.10;0.90;;;;;;;;;;5029208;28;20399;-70
2022/08/03 14:33:20;;;;;;;1.83;0.90;;;;;;;;;;5029595;28;20032;-69
2022/08/03 14:35:46;;;;;;;1.85;1.15;;;;;;;;;;5011587;28;20029;-68
2022/08/03 14:38:11;;;;;;;2.42;1.30;;;;;;;;;;5029499;28;20482;-69
2022/08/03 14:40:37;;;;;;;1.30;1.00;;;;;;;;;;5029135;28;20487;-70
2022/08/03 14:43:02;;;;;;;1.57;1.00;;;;;;;;;;5029259;28;20040;-68
2022/08/03 14:45:27;;;;;;;1.60;1.15;;;;;;;;;;5029589;28;20266;-68
2022/08/03 14:47:53;;;;;;;1.50;1.17;;;;;;;;;;5029451;28;20033;-69
2022/08/03 14:50:18;;;;;;;1.90;0.90;;;;;;;;;;5028864;28;20052;-70
2022/08/03 14:52:43;;;;;;;1.73;1.03;;;;;;;;;;5029636;28;20033;-72
2022/08/03 14:55:08;;;;;;;2.80;0.83;;;;;;;;;;5029619;28;20265;-71
2022/08/03 14:57:34;;;;;;;2.20;1.00;;;;;;;;;;5029154;28;20262;-70